sensor_id;sensor_type;location;lat;lon;timestamp;P1;durP1;ratioP1;P2;durP2;ratioP2
74945;SDS011;63509;45.250;38.102;2023-02-01T00:01:50;8.00;;;4.75;;
74945;SDS011;63509;45.250;38.102;2023-02-01T00:04:16;11.20;;;4.43;;
74945;SDS011;63509;45.250;38.102;2023-02-01T00:06:42;8.55;;;3.80;;
74945;SDS011;63509;45.250;38.102;2023-02-01T00:09:08;9.48;;;4.65;;
74945;SDS011;63509;45.250;38.102;2023-02-01T00:11:34;8.25;;;3.90;;
74945;SDS011;63509;45.250;38.102;2023-02-01T00:14:00;9.10;;;4.18;;
74945;SDS011;63509;45.250;38.102;2023-02-01T00:16:27;9.57;;;3.97;;
74945;SDS011;63509;45.250;38.102;2023-02-01T00:18:57;8.85;;;3.60;;
74945;SDS011;63509;45.250;38.102;2023-02-01T00:21:25;8.95;;;3.90;;
74945;SDS011;63509;45.250;38.102;2023-02-01T00:23:51;6.72;;;3.42;;
74945;SDS011;63509;45.250;38.102;2023-02-01T00:26:18;7.72;;;3.67;;
74945;SDS011;63509;45.250;38.102;2023-02-01T00:28:47;7.00;;;3.78;;
74945;SDS011;63509;45.250;38.102;2023-02-01T00:31:13;6.07;;;2.92;;
74945;SDS011;63509;45.250;38.102;2023-02-01T00:33:40;7.10;;;3.15;;
74945;SDS011;63509;45.250;38.102;2023-02-01T00:36:06;9.48;;;3.63;;
74945;SDS011;63509;45.250;38.102;2023-02-01T00:38:36;7.15;;;3.60;;
74945;SDS011;63509;45.250;38.102;2023-02-01T00:41:04;8.05;;;3.90;;
74945;SDS011;63509;45.250;38.102;2023-02-01T00:43:35;7.53;;;3.10;;
74945;SDS011;63509;45.250;38.102;2023-02-01T00:46:02;7.82;;;3.15;;
74945;SDS011;63509;45.250;38.102;2023-02-01T00:48:28;10.32;;;4.05;;
74945;SDS011;63509;45.250;38.102;2023-02-01T00:50:58;7.18;;;3.00;;
74945;SDS011;63509;45.250;38.102;2023-02-01T00:53:28;6.68;;;3.67;;
74945;SDS011;63509;45.250;38.102;2023-02-01T00:55:55;7.80;;;3.47;;
74945;SDS011;63509;45.250;38.102;2023-02-01T00:58:22;7.60;;;3.10;;
74945;SDS011;63509;45.250;38.102;2023-02-01T01:01:00;6.15;;;2.80;;
74945;SDS011;63509;45.250;38.102;2023-02-01T01:03:29;6.18;;;3.08;;
74945;SDS011;63509;45.250;38.102;2023-02-01T01:05:58;5.43;;;2.85;;
74945;SDS011;63509;45.250;38.102;2023-02-01T01:08:26;5.78;;;3.38;;
74945;SDS011;63509;45.250;38.102;2023-02-01T01:10:53;5.70;;;3.17;;
74945;SDS011;63509;45.250;38.102;2023-02-01T01:13:19;7.82;;;3.95;;
74945;SDS011;63509;45.250;38.102;2023-02-01T01:15:45;6.13;;;3.15;;
74945;SDS011;63509;45.250;38.102;2023-02-01T01:18:11;7.13;;;3.78;;
74945;SDS011;63509;45.250;38.102;2023-02-01T01:20:38;11.55;;;3.97;;
74945;SDS011;63509;45.250;38.102;2023-02-01T01:23:06;7.07;;;3.17;;
74945;SDS011;63509;45.250;38.102;2023-02-01T01:25:37;7.75;;;3.40;;
74945;SDS011;63509;45.250;38.102;2023-02-01T01:28:04;8.85;;;4.45;;
74945;SDS011;63509;45.250;38.102;2023-02-01T01:30:30;6.82;;;3.53;;
74945;SDS011;63509;45.250;38.102;2023-02-01T01:32:56;9.55;;;4.15;;
74945;SDS011;63509;45.250;38.102;2023-02-01T01:35:22;11.23;;;4.35;;
74945;SDS011;63509;45.250;38.102;2023-02-01T01:37:48;9.98;;;3.88;;
74945;SDS011;63509;45.250;38.102;2023-02-01T01:40:14;7.13;;;3.55;;
74945;SDS011;63509;45.250;38.102;2023-02-01T01:42:41;7.90;;;4.55;;
74945;SDS011;63509;45.250;38.102;2023-02-01T01:45:30;7.22;;;3.42;;
74945;SDS011;63509;45.250;38.102;2023-02-01T01:47:58;32.35;;;4.05;;
74945;SDS011;63509;45.250;38.102;2023-02-01T01:50:30;6.60;;;3.40;;
74945;SDS011;63509;45.250;38.102;2023-02-01T01:53:00;6.45;;;3.55;;
74945;SDS011;63509;45.250;38.102;2023-02-01T01:55:30;8.30;;;4.13;;
74945;SDS011;63509;45.250;38.102;2023-02-01T01:58:04;7.25;;;3.63;;
74945;SDS011;63509;45.250;38.102;2023-02-01T02:00:36;10.20;;;3.63;;
74945;SDS011;63509;45.250;38.102;2023-02-01T02:03:03;7.00;;;3.22;;
74945;SDS011;63509;45.250;38.102;2023-02-01T02:05:37;8.88;;;3.75;;
74945;SDS011;63509;45.250;38.102;2023-02-01T02:08:04;8.93;;;3.80;;
74945;SDS011;63509;45.250;38.102;2023-02-01T02:10:30;7.78;;;3.55;;
74945;SDS011;63509;45.250;38.102;2023-02-01T02:13:15;12.50;;;3.90;;
74945;SDS011;63509;45.250;38.102;2023-02-01T02:15:43;6.30;;;3.40;;
74945;SDS011;63509;45.250;38.102;2023-02-01T02:18:39;6.78;;;2.88;;
74945;SDS011;63509;45.250;38.102;2023-02-01T02:21:18;6.85;;;3.60;;
74945;SDS011;63509;45.250;38.102;2023-02-01T02:26:56;7.75;;;4.15;;
74945;SDS011;63509;45.250;38.102;2023-02-01T02:38:20;10.93;;;5.32;;
74945;SDS011;63509;45.250;38.102;2023-02-01T02:44:05;16.15;;;8.38;;
74945;SDS011;63509;45.250;38.102;2023-02-01T02:47:03;17.67;;;8.35;;
74945;SDS011;63509;45.250;38.102;2023-02-01T02:53:08;45.95;;;8.23;;
74945;SDS011;63509;45.250;38.102;2023-02-01T02:55:58;13.02;;;6.13;;
74945;SDS011;63509;45.250;38.102;2023-02-01T02:58:43;15.77;;;7.35;;
74945;SDS011;63509;45.250;38.102;2023-02-01T03:01:30;17.85;;;6.65;;
74945;SDS011;63509;45.250;38.102;2023-02-01T03:04:16;15.50;;;6.97;;
74945;SDS011;63509;45.250;38.102;2023-02-01T03:06:47;11.90;;;6.50;;
74945;SDS011;63509;45.250;38.102;2023-02-01T03:09:23;15.13;;;6.13;;
74945;SDS011;63509;45.250;38.102;2023-02-01T03:11:58;28.15;;;7.72;;
74945;SDS011;63509;45.250;38.102;2023-02-01T03:14:47;15.18;;;6.45;;
74945;SDS011;63509;45.250;38.102;2023-02-01T03:17:19;22.95;;;7.80;;
74945;SDS011;63509;45.250;38.102;2023-02-01T03:19:51;12.00;;;6.13;;
74945;SDS011;63509;45.250;38.102;2023-02-01T03:22:26;14.85;;;5.22;;
74945;SDS011;63509;45.250;38.102;2023-02-01T03:25:07;23.08;;;7.72;;
74945;SDS011;63509;45.250;38.102;2023-02-01T03:27:49;15.93;;;7.15;;
74945;SDS011;63509;45.250;38.102;2023-02-01T03:32:50;18.05;;;6.97;;
74945;SDS011;63509;45.250;38.102;2023-02-01T03:35:45;18.13;;;7.40;;
74945;SDS011;63509;45.250;38.102;2023-02-01T03:38:38;13.57;;;5.75;;
74945;SDS011;63509;45.250;38.102;2023-02-01T03:44:24;13.60;;;5.13;;
74945;SDS011;63509;45.250;38.102;2023-02-01T03:49:30;14.93;;;5.90;;
74945;SDS011;63509;45.250;38.102;2023-02-01T03:52:02;8.18;;;4.40;;
74945;SDS011;63509;45.250;38.102;2023-02-01T03:54:31;12.27;;;6.18;;
74945;SDS011;63509;45.250;38.102;2023-02-01T03:56:59;10.60;;;4.50;;
74945;SDS011;63509;45.250;38.102;2023-02-01T03:59:30;15.95;;;4.78;;
74945;SDS011;63509;45.250;38.102;2023-02-01T04:01:56;28.90;;;4.88;;
74945;SDS011;63509;45.250;38.102;2023-02-01T04:04:22;16.35;;;4.80;;
74945;SDS011;63509;45.250;38.102;2023-02-01T04:06:52;14.90;;;4.80;;
74945;SDS011;63509;45.250;38.102;2023-02-01T04:09:19;11.35;;;4.45;;
74945;SDS011;63509;45.250;38.102;2023-02-01T04:11:45;14.20;;;4.72;;
74945;SDS011;63509;45.250;38.102;2023-02-01T04:14:11;14.23;;;5.10;;
74945;SDS011;63509;45.250;38.102;2023-02-01T04:16:37;9.45;;;5.05;;
74945;SDS011;63509;45.250;38.102;2023-02-01T04:19:03;13.18;;;5.45;;
74945;SDS011;63509;45.250;38.102;2023-02-01T04:21:30;29.50;;;5.53;;
74945;SDS011;63509;45.250;38.102;2023-02-01T04:23:56;10.80;;;4.43;;
74945;SDS011;63509;45.250;38.102;2023-02-01T04:26:22;10.18;;;4.65;;
74945;SDS011;63509;45.250;38.102;2023-02-01T04:28:48;14.88;;;6.00;;
74945;SDS011;63509;45.250;38.102;2023-02-01T04:31:15;16.40;;;4.97;;
74945;SDS011;63509;45.250;38.102;2023-02-01T04:33:42;24.30;;;5.28;;
74945;SDS011;63509;45.250;38.102;2023-02-01T04:36:08;39.30;;;4.35;;
74945;SDS011;63509;45.250;38.102;2023-02-01T04:38:35;48.45;;;6.00;;
74945;SDS011;63509;45.250;38.102;2023-02-01T04:41:01;14.15;;;5.82;;
74945;SDS011;63509;45.250;38.102;2023-02-01T04:43:27;14.15;;;5.65;;
74945;SDS011;63509;45.250;38.102;2023-02-01T04:45:53;20.08;;;5.05;;
74945;SDS011;63509;45.250;38.102;2023-02-01T04:48:19;35.40;;;5.28;;
74945;SDS011;63509;45.250;38.102;2023-02-01T04:50:46;21.80;;;5.25;;
74945;SDS011;63509;45.250;38.102;2023-02-01T04:53:14;20.20;;;4.95;;
74945;SDS011;63509;45.250;38.102;2023-02-01T04:55:41;25.05;;;5.32;;
74945;SDS011;63509;45.250;38.102;2023-02-01T04:58:08;14.18;;;4.07;;
74945;SDS011;63509;45.250;38.102;2023-02-01T05:00:34;19.08;;;5.30;;
74945;SDS011;63509;45.250;38.102;2023-02-01T05:03:00;25.17;;;4.47;;
74945;SDS011;63509;45.250;38.102;2023-02-01T05:05:26;21.08;;;4.60;;
74945;SDS011;63509;45.250;38.102;2023-02-01T05:07:53;16.70;;;4.97;;
74945;SDS011;63509;45.250;38.102;2023-02-01T05:10:19;9.43;;;4.05;;
74945;SDS011;63509;45.250;38.102;2023-02-01T05:12:45;16.27;;;7.63;;
74945;SDS011;63509;45.250;38.102;2023-02-01T05:15:30;14.90;;;5.75;;
74945;SDS011;63509;45.250;38.102;2023-02-01T05:17:56;14.25;;;5.25;;
74945;SDS011;63509;45.250;38.102;2023-02-01T05:20:23;38.63;;;5.32;;
74945;SDS011;63509;45.250;38.102;2023-02-01T05:22:50;26.20;;;5.57;;
74945;SDS011;63509;45.250;38.102;2023-02-01T05:25:16;37.25;;;6.63;;
74945;SDS011;63509;45.250;38.102;2023-02-01T05:27:42;50.47;;;5.53;;
74945;SDS011;63509;45.250;38.102;2023-02-01T05:30:08;15.30;;;5.00;;
74945;SDS011;63509;45.250;38.102;2023-02-01T05:32:35;14.20;;;5.22;;
74945;SDS011;63509;45.250;38.102;2023-02-01T05:35:01;44.10;;;7.00;;
74945;SDS011;63509;45.250;38.102;2023-02-01T05:37:28;20.52;;;6.22;;
74945;SDS011;63509;45.250;38.102;2023-02-01T05:39:54;19.05;;;5.22;;
74945;SDS011;63509;45.250;38.102;2023-02-01T05:42:20;21.85;;;4.68;;
74945;SDS011;63509;45.250;38.102;2023-02-01T05:44:46;15.60;;;5.30;;
74945;SDS011;63509;45.250;38.102;2023-02-01T05:47:12;6.85;;;3.08;;
74945;SDS011;63509;45.250;38.102;2023-02-01T05:49:38;17.17;;;5.10;;
74945;SDS011;63509;45.250;38.102;2023-02-01T05:52:04;19.40;;;4.63;;
74945;SDS011;63509;45.250;38.102;2023-02-01T05:54:30;30.13;;;8.23;;
74945;SDS011;63509;45.250;38.102;2023-02-01T05:56:56;33.90;;;13.02;;
74945;SDS011;63509;45.250;38.102;2023-02-01T05:59:22;38.60;;;10.82;;
74945;SDS011;63509;45.250;38.102;2023-02-01T06:01:48;76.43;;;13.45;;
74945;SDS011;63509;45.250;38.102;2023-02-01T06:04:14;39.88;;;10.75;;
74945;SDS011;63509;45.250;38.102;2023-02-01T06:06:40;38.72;;;9.70;;
74945;SDS011;63509;45.250;38.102;2023-02-01T06:09:06;37.03;;;8.70;;
74945;SDS011;63509;45.250;38.102;2023-02-01T06:11:32;34.45;;;7.53;;
74945;SDS011;63509;45.250;38.102;2023-02-01T06:13:59;15.88;;;5.68;;
74945;SDS011;63509;45.250;38.102;2023-02-01T06:16:25;15.43;;;4.65;;
74945;SDS011;63509;45.250;38.102;2023-02-01T06:18:51;35.08;;;4.82;;
74945;SDS011;63509;45.250;38.102;2023-02-01T06:21:17;12.23;;;5.40;;
74945;SDS011;63509;45.250;38.102;2023-02-01T06:23:55;8.27;;;3.90;;
74945;SDS011;63509;45.250;38.102;2023-02-01T06:26:22;21.55;;;5.63;;
74945;SDS011;63509;45.250;38.102;2023-02-01T06:28:49;12.07;;;4.50;;
74945;SDS011;63509;45.250;38.102;2023-02-01T06:31:15;12.80;;;4.80;;
74945;SDS011;63509;45.250;38.102;2023-02-01T06:33:41;34.60;;;6.10;;
74945;SDS011;63509;45.250;38.102;2023-02-01T06:36:09;19.95;;;7.00;;
74945;SDS011;63509;45.250;38.102;2023-02-01T06:38:37;13.15;;;6.10;;
74945;SDS011;63509;45.250;38.102;2023-02-01T06:41:04;16.35;;;5.85;;
74945;SDS011;63509;45.250;38.102;2023-02-01T06:43:30;26.00;;;5.60;;
74945;SDS011;63509;45.250;38.102;2023-02-01T06:46:02;14.70;;;5.22;;
74945;SDS011;63509;45.250;38.102;2023-02-01T06:48:38;10.50;;;4.60;;
74945;SDS011;63509;45.250;38.102;2023-02-01T06:51:04;10.50;;;4.75;;
74945;SDS011;63509;45.250;38.102;2023-02-01T06:53:30;13.85;;;5.32;;
74945;SDS011;63509;45.250;38.102;2023-02-01T06:55:57;21.40;;;5.20;;
74945;SDS011;63509;45.250;38.102;2023-02-01T06:58:32;35.83;;;4.78;;
74945;SDS011;63509;45.250;38.102;2023-02-01T07:01:04;15.52;;;4.97;;
74945;SDS011;63509;45.250;38.102;2023-02-01T07:03:31;19.75;;;5.45;;
74945;SDS011;63509;45.250;38.102;2023-02-01T07:05:57;15.52;;;6.13;;
74945;SDS011;63509;45.250;38.102;2023-02-01T07:08:24;17.00;;;5.55;;
74945;SDS011;63509;45.250;38.102;2023-02-01T07:10:52;17.33;;;5.35;;
74945;SDS011;63509;45.250;38.102;2023-02-01T07:13:19;11.02;;;4.35;;
74945;SDS011;63509;45.250;38.102;2023-02-01T07:15:45;12.77;;;4.72;;
74945;SDS011;63509;45.250;38.102;2023-02-01T07:18:14;12.30;;;5.32;;
74945;SDS011;63509;45.250;38.102;2023-02-01T07:20:41;12.32;;;5.20;;
74945;SDS011;63509;45.250;38.102;2023-02-01T07:23:10;24.38;;;7.68;;
74945;SDS011;63509;45.250;38.102;2023-02-01T07:25:36;51.20;;;10.35;;
74945;SDS011;63509;45.250;38.102;2023-02-01T07:28:02;25.42;;;8.68;;
74945;SDS011;63509;45.250;38.102;2023-02-01T07:30:28;22.33;;;8.23;;
74945;SDS011;63509;45.250;38.102;2023-02-01T07:32:54;25.77;;;9.45;;
74945;SDS011;63509;45.250;38.102;2023-02-01T07:35:20;21.73;;;8.80;;
74945;SDS011;63509;45.250;38.102;2023-02-01T07:37:46;23.42;;;6.10;;
74945;SDS011;63509;45.250;38.102;2023-02-01T07:40:12;13.52;;;6.38;;
74945;SDS011;63509;45.250;38.102;2023-02-01T07:42:38;21.38;;;11.90;;
74945;SDS011;63509;45.250;38.102;2023-02-01T07:45:04;34.83;;;15.55;;
74945;SDS011;63509;45.250;38.102;2023-02-01T07:47:31;23.02;;;10.25;;
74945;SDS011;63509;45.250;38.102;2023-02-01T07:49:57;23.02;;;11.75;;
74945;SDS011;63509;45.250;38.102;2023-02-01T07:52:23;41.00;;;11.88;;
74945;SDS011;63509;45.250;38.102;2023-02-01T07:54:48;24.33;;;9.00;;
74945;SDS011;63509;45.250;38.102;2023-02-01T07:57:15;34.72;;;14.25;;
74945;SDS011;63509;45.250;38.102;2023-02-01T07:59:40;20.10;;;9.00;;
74945;SDS011;63509;45.250;38.102;2023-02-01T08:02:26;25.58;;;12.57;;
74945;SDS011;63509;45.250;38.102;2023-02-01T08:04:52;41.03;;;19.48;;
74945;SDS011;63509;45.250;38.102;2023-02-01T08:07:18;33.50;;;15.25;;
74945;SDS011;63509;45.250;38.102;2023-02-01T08:09:44;39.53;;;15.88;;
74945;SDS011;63509;45.250;38.102;2023-02-01T08:12:11;33.60;;;15.30;;
74945;SDS011;63509;45.250;38.102;2023-02-01T08:14:36;26.70;;;14.30;;
74945;SDS011;63509;45.250;38.102;2023-02-01T08:17:03;27.88;;;14.15;;
74945;SDS011;63509;45.250;38.102;2023-02-01T08:19:28;23.92;;;13.45;;
74945;SDS011;63509;45.250;38.102;2023-02-01T08:21:54;33.30;;;14.57;;
74945;SDS011;63509;45.250;38.102;2023-02-01T08:24:20;28.77;;;13.93;;
74945;SDS011;63509;45.250;38.102;2023-02-01T08:26:46;26.70;;;12.18;;
74945;SDS011;63509;45.250;38.102;2023-02-01T08:29:13;23.35;;;11.52;;
74945;SDS011;63509;45.250;38.102;2023-02-01T08:31:39;34.00;;;12.43;;
74945;SDS011;63509;45.250;38.102;2023-02-01T08:34:08;22.85;;;13.02;;
74945;SDS011;63509;45.250;38.102;2023-02-01T08:36:35;28.42;;;14.82;;
74945;SDS011;63509;45.250;38.102;2023-02-01T08:39:01;29.52;;;14.90;;
74945;SDS011;63509;45.250;38.102;2023-02-01T08:41:31;48.28;;;22.95;;
74945;SDS011;63509;45.250;38.102;2023-02-01T08:43:56;30.40;;;14.40;;
74945;SDS011;63509;45.250;38.102;2023-02-01T08:46:23;29.95;;;11.15;;
74945;SDS011;63509;45.250;38.102;2023-02-01T08:48:49;22.65;;;9.63;;
74945;SDS011;63509;45.250;38.102;2023-02-01T08:51:17;16.67;;;8.82;;
74945;SDS011;63509;45.250;38.102;2023-02-01T08:53:44;13.77;;;7.07;;
74945;SDS011;63509;45.250;38.102;2023-02-01T08:56:12;25.38;;;7.82;;
74945;SDS011;63509;45.250;38.102;2023-02-01T08:58:39;29.55;;;7.50;;
74945;SDS011;63509;45.250;38.102;2023-02-01T09:01:06;32.22;;;7.40;;
74945;SDS011;63509;45.250;38.102;2023-02-01T09:03:34;17.52;;;6.60;;
74945;SDS011;63509;45.250;38.102;2023-02-01T09:06:01;22.05;;;8.35;;
74945;SDS011;63509;45.250;38.102;2023-02-01T09:08:31;14.70;;;6.00;;
74945;SDS011;63509;45.250;38.102;2023-02-01T09:10:59;21.55;;;6.18;;
74945;SDS011;63509;45.250;38.102;2023-02-01T09:13:29;12.25;;;6.45;;
74945;SDS011;63509;45.250;38.102;2023-02-01T09:15:55;36.17;;;15.82;;
74945;SDS011;63509;45.250;38.102;2023-02-01T09:18:21;37.45;;;15.95;;
74945;SDS011;63509;45.250;38.102;2023-02-01T09:20:47;20.80;;;9.30;;
74945;SDS011;63509;45.250;38.102;2023-02-01T09:23:13;29.50;;;10.32;;
74945;SDS011;63509;45.250;38.102;2023-02-01T09:25:39;18.15;;;7.45;;
74945;SDS011;63509;45.250;38.102;2023-02-01T09:28:06;25.63;;;9.57;;
74945;SDS011;63509;45.250;38.102;2023-02-01T09:30:34;21.40;;;7.90;;
74945;SDS011;63509;45.250;38.102;2023-02-01T09:33:01;15.80;;;8.32;;
74945;SDS011;63509;45.250;38.102;2023-02-01T09:35:27;30.42;;;13.93;;
74945;SDS011;63509;45.250;38.102;2023-02-01T09:37:54;42.67;;;19.35;;
74945;SDS011;63509;45.250;38.102;2023-02-01T09:40:20;36.13;;;16.00;;
74945;SDS011;63509;45.250;38.102;2023-02-01T09:48:07;44.67;;;21.75;;
74945;SDS011;63509;45.250;38.102;2023-02-01T09:50:47;33.42;;;13.88;;
74945;SDS011;63509;45.250;38.102;2023-02-01T09:53:21;37.83;;;11.68;;
74945;SDS011;63509;45.250;38.102;2023-02-01T09:56:23;24.98;;;10.30;;
74945;SDS011;63509;45.250;38.102;2023-02-01T09:58:59;40.03;;;15.43;;
74945;SDS011;63509;45.250;38.102;2023-02-01T10:01:31;39.55;;;15.73;;
74945;SDS011;63509;45.250;38.102;2023-02-01T10:04:01;49.80;;;15.55;;
74945;SDS011;63509;45.250;38.102;2023-02-01T10:06:36;34.08;;;16.45;;
74945;SDS011;63509;45.250;38.102;2023-02-01T10:14:52;38.08;;;14.10;;
74945;SDS011;63509;45.250;38.102;2023-02-01T10:27:46;18.13;;;6.68;;
74945;SDS011;63509;45.250;38.102;2023-02-01T10:32:44;20.05;;;7.20;;
74945;SDS011;63509;45.250;38.102;2023-02-01T10:35:17;22.10;;;6.85;;
74945;SDS011;63509;45.250;38.102;2023-02-01T10:37:47;16.73;;;7.15;;
74945;SDS011;63509;45.250;38.102;2023-02-01T10:42:47;46.90;;;8.85;;
74945;SDS011;63509;45.250;38.102;2023-02-01T10:45:20;27.20;;;6.82;;
74945;SDS011;63509;45.250;38.102;2023-02-01T10:47:49;32.08;;;8.32;;
74945;SDS011;63509;45.250;38.102;2023-02-01T10:53:24;27.52;;;7.43;;
74945;SDS011;63509;45.250;38.102;2023-02-01T10:56:07;23.67;;;8.30;;
74945;SDS011;63509;45.250;38.102;2023-02-01T10:58:35;22.00;;;7.75;;
74945;SDS011;63509;45.250;38.102;2023-02-01T11:01:07;21.83;;;6.88;;
74945;SDS011;63509;45.250;38.102;2023-02-01T11:03:37;17.80;;;6.45;;
74945;SDS011;63509;45.250;38.102;2023-02-01T11:06:11;16.63;;;7.53;;
74945;SDS011;63509;45.250;38.102;2023-02-01T11:08:57;16.35;;;7.35;;
74945;SDS011;63509;45.250;38.102;2023-02-01T11:11:25;21.08;;;7.75;;
74945;SDS011;63509;45.250;38.102;2023-02-01T11:13:53;15.10;;;7.10;;
74945;SDS011;63509;45.250;38.102;2023-02-01T11:16:28;14.75;;;7.07;;
74945;SDS011;63509;45.250;38.102;2023-02-01T11:19:00;12.57;;;6.60;;
74945;SDS011;63509;45.250;38.102;2023-02-01T11:21:26;16.70;;;6.22;;
74945;SDS011;63509;45.250;38.102;2023-02-01T11:23:53;15.82;;;6.72;;
74945;SDS011;63509;45.250;38.102;2023-02-01T11:26:21;11.00;;;5.65;;
74945;SDS011;63509;45.250;38.102;2023-02-01T11:28:58;12.82;;;6.47;;
74945;SDS011;63509;45.250;38.102;2023-02-01T11:31:26;13.98;;;7.30;;
74945;SDS011;63509;45.250;38.102;2023-02-01T11:33:54;12.85;;;6.65;;
74945;SDS011;63509;45.250;38.102;2023-02-01T11:36:26;15.65;;;7.50;;
74945;SDS011;63509;45.250;38.102;2023-02-01T11:41:44;14.88;;;7.20;;
74945;SDS011;63509;45.250;38.102;2023-02-01T11:44:31;19.08;;;8.75;;
74945;SDS011;63509;45.250;38.102;2023-02-01T11:47:45;16.48;;;8.45;;
74945;SDS011;63509;45.250;38.102;2023-02-01T11:49:48;23.70;;;8.20;;
74945;SDS011;63509;45.250;38.102;2023-02-01T12:05:52;17.65;;;8.23;;
74945;SDS011;63509;45.250;38.102;2023-02-01T12:25:33;19.08;;;11.88;;
74945;SDS011;63509;45.250;38.102;2023-02-01T12:33:35;17.10;;;9.13;;
74945;SDS011;63509;45.250;38.102;2023-02-01T12:36:29;15.93;;;8.75;;
74945;SDS011;63509;45.250;38.102;2023-02-01T12:47:49;15.60;;;7.90;;
74945;SDS011;63509;45.250;38.102;2023-02-01T12:49:54;15.88;;;8.77;;
74945;SDS011;63509;45.250;38.102;2023-02-01T12:52:32;14.38;;;7.85;;
74945;SDS011;63509;45.250;38.102;2023-02-01T12:57:58;12.73;;;7.50;;
74945;SDS011;63509;45.250;38.102;2023-02-01T13:00:38;12.50;;;7.10;;
74945;SDS011;63509;45.250;38.102;2023-02-01T13:05:56;13.23;;;6.68;;
74945;SDS011;63509;45.250;38.102;2023-02-01T13:08:48;10.43;;;6.80;;
74945;SDS011;63509;45.250;38.102;2023-02-01T13:11:37;12.73;;;5.93;;
74945;SDS011;63509;45.250;38.102;2023-02-01T13:16:33;13.85;;;7.57;;
74945;SDS011;63509;45.250;38.102;2023-02-01T13:21:55;13.63;;;5.90;;
74945;SDS011;63509;45.250;38.102;2023-02-01T13:24:39;11.80;;;6.65;;
74945;SDS011;63509;45.250;38.102;2023-02-01T13:27:13;13.18;;;7.15;;
74945;SDS011;63509;45.250;38.102;2023-02-01T13:29:50;9.80;;;5.93;;
74945;SDS011;63509;45.250;38.102;2023-02-01T13:35:07;12.90;;;6.72;;
74945;SDS011;63509;45.250;38.102;2023-02-01T13:40:45;15.50;;;7.38;;
74945;SDS011;63509;45.250;38.102;2023-02-01T13:43:48;8.98;;;5.03;;
74945;SDS011;63509;45.250;38.102;2023-02-01T13:48:47;11.07;;;5.28;;
74945;SDS011;63509;45.250;38.102;2023-02-01T13:51:31;10.05;;;4.50;;
74945;SDS011;63509;45.250;38.102;2023-02-01T13:53:59;12.25;;;4.85;;
74945;SDS011;63509;45.250;38.102;2023-02-01T13:56:25;9.52;;;5.50;;
74945;SDS011;63509;45.250;38.102;2023-02-01T13:58:52;8.52;;;5.07;;
74945;SDS011;63509;45.250;38.102;2023-02-01T14:11:38;10.35;;;6.15;;
74945;SDS011;63509;45.250;38.102;2023-02-01T14:14:13;10.38;;;6.05;;
74945;SDS011;63509;45.250;38.102;2023-02-01T14:24:50;9.88;;;4.97;;
74945;SDS011;63509;45.250;38.102;2023-02-01T14:27:24;8.93;;;5.50;;
74945;SDS011;63509;45.250;38.102;2023-02-01T14:29:55;10.63;;;5.55;;
74945;SDS011;63509;45.250;38.102;2023-02-01T14:32:25;11.68;;;6.55;;
74945;SDS011;63509;45.250;38.102;2023-02-01T14:34:58;14.88;;;7.55;;
74945;SDS011;63509;45.250;38.102;2023-02-01T14:37:28;13.85;;;6.85;;
74945;SDS011;63509;45.250;38.102;2023-02-01T14:39:58;12.10;;;5.63;;
74945;SDS011;63509;45.250;38.102;2023-02-01T14:42:38;15.70;;;7.03;;
74945;SDS011;63509;45.250;38.102;2023-02-01T14:47:50;14.30;;;7.05;;
74945;SDS011;63509;45.250;38.102;2023-02-01T14:50:43;11.98;;;7.15;;
74945;SDS011;63509;45.250;38.102;2023-02-01T14:55:51;13.00;;;6.75;;
74945;SDS011;63509;45.250;38.102;2023-02-01T15:01:01;17.15;;;7.90;;
74945;SDS011;63509;45.250;38.102;2023-02-01T15:14:22;18.73;;;10.23;;
74945;SDS011;63509;45.250;38.102;2023-02-01T15:16:49;18.90;;;10.38;;
74945;SDS011;63509;45.250;38.102;2023-02-01T15:19:20;20.70;;;10.75;;
74945;SDS011;63509;45.250;38.102;2023-02-01T15:21:49;22.60;;;10.65;;
74945;SDS011;63509;45.250;38.102;2023-02-01T15:24:21;27.38;;;11.00;;
74945;SDS011;63509;45.250;38.102;2023-02-01T15:26:51;21.10;;;10.63;;
74945;SDS011;63509;45.250;38.102;2023-02-01T15:29:21;23.02;;;10.88;;
74945;SDS011;63509;45.250;38.102;2023-02-01T15:31:51;19.73;;;9.63;;
74945;SDS011;63509;45.250;38.102;2023-02-01T15:34:18;21.25;;;9.82;;
74945;SDS011;63509;45.250;38.102;2023-02-01T15:36:46;19.52;;;10.45;;
74945;SDS011;63509;45.250;38.102;2023-02-01T15:39:20;21.60;;;10.93;;
74945;SDS011;63509;45.250;38.102;2023-02-01T15:44:41;17.73;;;9.95;;
74945;SDS011;63509;45.250;38.102;2023-02-01T15:47:29;22.90;;;9.63;;
74945;SDS011;63509;45.250;38.102;2023-02-01T15:49:58;19.48;;;10.05;;
74945;SDS011;63509;45.250;38.102;2023-02-01T15:54:59;16.23;;;7.70;;
74945;SDS011;63509;45.250;38.102;2023-02-01T15:57:36;14.63;;;7.10;;
74945;SDS011;63509;45.250;38.102;2023-02-01T16:00:07;18.38;;;10.07;;
74945;SDS011;63509;45.250;38.102;2023-02-01T16:02:55;14.57;;;7.65;;
74945;SDS011;63509;45.250;38.102;2023-02-01T16:05:28;16.00;;;7.93;;
74945;SDS011;63509;45.250;38.102;2023-02-01T16:08:06;15.90;;;8.23;;
74945;SDS011;63509;45.250;38.102;2023-02-01T16:10:47;20.75;;;8.85;;
74945;SDS011;63509;45.250;38.102;2023-02-01T16:15:43;16.40;;;8.07;;
74945;SDS011;63509;45.250;38.102;2023-02-01T16:18:11;17.20;;;8.70;;
74945;SDS011;63509;45.250;38.102;2023-02-01T16:20:38;16.38;;;8.20;;
74945;SDS011;63509;45.250;38.102;2023-02-01T16:23:06;19.25;;;8.75;;
74945;SDS011;63509;45.250;38.102;2023-02-01T16:25:33;15.65;;;6.90;;
74945;SDS011;63509;45.250;38.102;2023-02-01T16:27:59;19.70;;;9.48;;
74945;SDS011;63509;45.250;38.102;2023-02-01T16:30:25;16.27;;;8.80;;
74945;SDS011;63509;45.250;38.102;2023-02-01T16:32:55;15.32;;;8.15;;
74945;SDS011;63509;45.250;38.102;2023-02-01T16:35:26;17.38;;;8.43;;
74945;SDS011;63509;45.250;38.102;2023-02-01T16:38:07;15.85;;;8.43;;
74945;SDS011;63509;45.250;38.102;2023-02-01T16:40:41;11.73;;;7.72;;
74945;SDS011;63509;45.250;38.102;2023-02-01T16:43:12;14.23;;;8.15;;
74945;SDS011;63509;45.250;38.102;2023-02-01T16:45:44;14.52;;;8.02;;
74945;SDS011;63509;45.250;38.102;2023-02-01T16:48:21;15.23;;;8.18;;
74945;SDS011;63509;45.250;38.102;2023-02-01T16:50:54;14.95;;;7.20;;
74945;SDS011;63509;45.250;38.102;2023-02-01T16:55:48;14.40;;;6.05;;
74945;SDS011;63509;45.250;38.102;2023-02-01T16:58:18;12.77;;;6.50;;
74945;SDS011;63509;45.250;38.102;2023-02-01T17:00:46;12.27;;;6.38;;
74945;SDS011;63509;45.250;38.102;2023-02-01T17:03:13;16.55;;;5.82;;
74945;SDS011;63509;45.250;38.102;2023-02-01T17:05:47;13.32;;;7.95;;
74945;SDS011;63509;45.250;38.102;2023-02-01T17:08:58;12.65;;;6.18;;
74945;SDS011;63509;45.250;38.102;2023-02-01T17:11:06;10.65;;;5.43;;
74945;SDS011;63509;45.250;38.102;2023-02-01T17:13:33;12.35;;;6.40;;
74945;SDS011;63509;45.250;38.102;2023-02-01T17:16:01;14.35;;;5.07;;
74945;SDS011;63509;45.250;38.102;2023-02-01T17:18:29;8.70;;;5.72;;
74945;SDS011;63509;45.250;38.102;2023-02-01T17:20:59;14.00;;;6.63;;
74945;SDS011;63509;45.250;38.102;2023-02-01T17:23:27;13.38;;;5.85;;
74945;SDS011;63509;45.250;38.102;2023-02-01T17:25:54;11.88;;;6.75;;
74945;SDS011;63509;45.250;38.102;2023-02-01T17:28:21;13.23;;;6.95;;
74945;SDS011;63509;45.250;38.102;2023-02-01T17:30:47;15.45;;;7.32;;